createdAt,value
2023-02-07T00:02:36.960Z,306.8884
2023-02-07T00:17:39.286Z,222.30431
2023-02-07T00:32:41.598Z,113.86318
2023-02-07T00:47:43.968Z,37.9544
2023-02-07T01:02:46.288Z,6.50647
2023-02-07T01:17:48.552Z,1.08441
2023-02-07T01:32:50.777Z,0
2023-02-07T01:47:53.036Z,0
2023-02-07T02:02:55.584Z,0
2023-02-07T02:17:57.924Z,0
2023-02-07T02:33:00.206Z,0
2023-02-07T02:48:02.525Z,0
2023-02-07T03:03:04.888Z,0
2023-02-07T03:18:07.158Z,0
2023-02-07T03:33:09.423Z,0
2023-02-07T03:48:11.818Z,0
2023-02-07T04:03:14.098Z,0
2023-02-07T04:18:16.550Z,0
2023-02-07T04:33:18.864Z,0
2023-02-07T04:48:21.119Z,0
2023-02-07T05:03:23.389Z,0
2023-02-07T05:18:25.740Z,0
2023-02-07T05:33:28.066Z,0
2023-02-07T05:48:30.286Z,0
2023-02-07T06:03:32.784Z,0
2023-02-07T06:18:35.070Z,0
2023-02-07T06:33:37.396Z,0
2023-02-07T06:48:39.769Z,0
2023-02-07T07:03:41.909Z,0
2023-02-07T07:18:44.104Z,0
2023-02-07T07:33:46.365Z,0
2023-02-07T07:48:48.600Z,0
2023-02-07T08:03:51.028Z,0
2023-02-07T08:18:53.215Z,0
2023-02-07T08:33:55.556Z,0
2023-02-07T08:48:57.801Z,0
2023-02-07T09:03:59.983Z,0
2023-02-07T09:19:02.229Z,0
2023-02-07T09:34:04.465Z,0
2023-02-07T09:49:06.690Z,0
2023-02-07T10:04:08.918Z,0
2023-02-07T10:19:11.188Z,0
2023-02-07T10:34:13.430Z,0
2023-02-07T10:49:15.761Z,0
2023-02-07T11:04:18.057Z,0
2023-02-07T11:19:20.223Z,0
2023-02-07T11:34:22.869Z,0
2023-02-07T11:49:25.188Z,0
2023-02-07T12:04:27.447Z,0
2023-02-07T12:19:29.682Z,0
2023-02-07T12:34:31.968Z,0
2023-02-07T12:49:34.201Z,0
2023-02-07T13:04:36.429Z,0
2023-02-07T13:19:38.640Z,0
2023-02-07T13:34:40.835Z,0
2023-02-07T13:49:43.181Z,0
2023-02-07T14:04:45.450Z,0
2023-02-07T14:19:47.712Z,0
2023-02-07T14:34:50.024Z,0
2023-02-07T14:49:52.379Z,0
2023-02-07T15:04:54.620Z,4.33765
2023-02-07T15:19:56.888Z,15.18176
2023-02-07T15:34:59.120Z,37.9544
2023-02-07T15:50:01.373Z,99.76584
2023-02-07T16:05:03.668Z,303.63516
2023-02-07T16:20:06.334Z,477.14096
2023-02-07T16:35:08.553Z,533.53033
2023-02-07T16:50:10.924Z,678.84143
2023-02-07T17:05:13.175Z,735.23083
2023-02-07T17:20:15.354Z,1005.24927
2023-02-07T17:35:17.558Z,1342.5011
2023-02-07T17:50:19.855Z,1508.41602
2023-02-07T18:05:22.420Z,1473.71497
2023-02-07T18:20:24.629Z,1655.896
2023-02-07T18:35:26.896Z,1602.75989
2023-02-07T18:50:29.466Z,1343.58557
2023-02-07T19:05:31.886Z,1352.26086
2023-02-07T19:20:34.204Z,1585.4093
2023-02-07T19:35:36.601Z,1686.25952
2023-02-07T19:50:39.144Z,1533.35754
2023-02-07T20:05:41.540Z,1538.77954
2023-02-07T20:20:43.833Z,1499.74072
2023-02-07T20:35:46.054Z,1441.18262
2023-02-07T20:50:48.533Z,1372.86462
2023-02-07T21:05:50.902Z,1254.66382
2023-02-07T21:20:53.113Z,947.77545
2023-02-07T21:35:55.369Z,1249.24182
2023-02-07T21:50:57.643Z,888.13281
2023-02-07T22:05:59.858Z,958.61957
2023-02-07T22:21:02.059Z,703.7829
2023-02-07T22:36:04.345Z,588.83533
2023-02-07T22:51:06.559Z,576.9068
2023-02-07T23:06:08.817Z,338.3363
2023-02-07T23:21:10.996Z,303.63516
2023-02-07T23:36:13.324Z,340.50513
2023-02-07T23:51:15.560Z,242.90813
